sensor_id;sensor_type;location;lat;lon;timestamp;pressure;altitude;pressure_sealevel;temperature;humidity
68871;BME280;55906;52.278;6.808;2023-04-19T00:00:11;102690.13;;;11.14;66.71
68871;BME280;55906;52.278;6.808;2023-04-19T00:02:38;102690.19;;;11.16;66.59
68871;BME280;55906;52.278;6.808;2023-04-19T00:05:08;102691.75;;;11.12;67.13
68871;BME280;55906;52.278;6.808;2023-04-19T00:07:36;102690.69;;;11.09;67.59
68871;BME280;55906;52.278;6.808;2023-04-19T00:10:03;102688.81;;;11.06;66.98
68871;BME280;55906;52.278;6.808;2023-04-19T00:12:29;102682.16;;;10.97;68.83
68871;BME280;55906;52.278;6.808;2023-04-19T00:14:56;102688.22;;;10.96;68.02
68871;BME280;55906;52.278;6.808;2023-04-19T00:17:22;102681.97;;;10.94;67.55
68871;BME280;55906;52.278;6.808;2023-04-19T00:19:49;102676.56;;;10.90;68.33
68871;BME280;55906;52.278;6.808;2023-04-19T00:22:17;102673.66;;;10.86;68.75
68871;BME280;55906;52.278;6.808;2023-04-19T00:24:44;102673.75;;;10.87;67.67
68871;BME280;55906;52.278;6.808;2023-04-19T00:27:11;102666.50;;;10.83;68.80
68871;BME280;55906;52.278;6.808;2023-04-19T00:29:37;102670.63;;;10.78;68.45
68871;BME280;55906;52.278;6.808;2023-04-19T00:32:04;102667.09;;;10.78;68.29
68871;BME280;55906;52.278;6.808;2023-04-19T00:34:31;102665.19;;;10.75;68.06
68871;BME280;55906;52.278;6.808;2023-04-19T00:36:57;102663.22;;;10.71;67.93
68871;BME280;55906;52.278;6.808;2023-04-19T00:39:25;102664.22;;;10.73;68.10
68871;BME280;55906;52.278;6.808;2023-04-19T00:41:52;102668.31;;;10.68;67.88
68871;BME280;55906;52.278;6.808;2023-04-19T00:44:19;102663.88;;;10.67;67.62
68871;BME280;55906;52.278;6.808;2023-04-19T00:46:46;102664.69;;;10.66;67.90
68871;BME280;55906;52.278;6.808;2023-04-19T00:49:13;102669.78;;;10.63;67.76
68871;BME280;55906;52.278;6.808;2023-04-19T00:51:40;102666.19;;;10.61;68.28
68871;BME280;55906;52.278;6.808;2023-04-19T00:54:07;102662.47;;;10.57;68.90
68871;BME280;55906;52.278;6.808;2023-04-19T00:56:35;102671.19;;;10.56;68.52
68871;BME280;55906;52.278;6.808;2023-04-19T00:59:02;102662.38;;;10.56;69.56
68871;BME280;55906;52.278;6.808;2023-04-19T01:01:29;102657.38;;;10.61;68.45
68871;BME280;55906;52.278;6.808;2023-04-19T01:03:55;102660.91;;;10.61;69.02
68871;BME280;55906;52.278;6.808;2023-04-19T01:06:22;102668.16;;;10.65;68.36
68871;BME280;55906;52.278;6.808;2023-04-19T01:08:49;102664.78;;;10.68;68.81
68871;BME280;55906;52.278;6.808;2023-04-19T01:11:15;102667.59;;;10.71;68.15
68871;BME280;55906;52.278;6.808;2023-04-19T01:13:43;102662.22;;;10.69;68.43
68871;BME280;55906;52.278;6.808;2023-04-19T01:16:10;102659.59;;;10.69;68.49
68871;BME280;55906;52.278;6.808;2023-04-19T01:18:37;102664.13;;;10.72;68.53
68871;BME280;55906;52.278;6.808;2023-04-19T01:21:06;102661.41;;;10.70;68.14
68871;BME280;55906;52.278;6.808;2023-04-19T01:23:34;102665.19;;;10.75;67.51
68871;BME280;55906;52.278;6.808;2023-04-19T01:26:03;102667.16;;;10.79;67.97
68871;BME280;55906;52.278;6.808;2023-04-19T01:35:17;102663.31;;;10.73;67.48
68871;BME280;55906;52.278;6.808;2023-04-19T01:37:44;102671.13;;;10.71;67.84
68871;BME280;55906;52.278;6.808;2023-04-19T01:40:13;102664.78;;;10.68;67.82
68871;BME280;55906;52.278;6.808;2023-04-19T01:42:39;102669.06;;;10.66;67.75
68871;BME280;55906;52.278;6.808;2023-04-19T01:45:07;102670.03;;;10.68;67.53
68871;BME280;55906;52.278;6.808;2023-04-19T01:47:34;102668.00;;;10.62;68.73
68871;BME280;55906;52.278;6.808;2023-04-19T01:50:01;102665.03;;;10.56;68.43
68871;BME280;55906;52.278;6.808;2023-04-19T01:52:27;102666.00;;;10.58;68.10
68871;BME280;55906;52.278;6.808;2023-04-19T01:54:54;102663.47;;;10.60;67.61
68871;BME280;55906;52.278;6.808;2023-04-19T01:57:22;102659.09;;;10.60;67.43
68871;BME280;55906;52.278;6.808;2023-04-19T01:59:48;102670.38;;;10.57;68.70
68871;BME280;55906;52.278;6.808;2023-04-19T02:02:15;102664.94;;;10.54;67.93
68871;BME280;55906;52.278;6.808;2023-04-19T02:04:42;102667.41;;;10.51;68.44
68871;BME280;55906;52.278;6.808;2023-04-19T02:07:09;102665.94;;;10.56;67.23
68871;BME280;55906;52.278;6.808;2023-04-19T02:09:36;102667.75;;;10.57;67.31
68871;BME280;55906;52.278;6.808;2023-04-19T02:12:03;102675.53;;;10.56;67.66
68871;BME280;55906;52.278;6.808;2023-04-19T02:14:32;102672.75;;;10.53;67.60
68871;BME280;55906;52.278;6.808;2023-04-19T02:16:58;102658.84;;;10.55;66.85
68871;BME280;55906;52.278;6.808;2023-04-19T02:19:25;102669.94;;;10.50;67.55
68871;BME280;55906;52.278;6.808;2023-04-19T02:21:51;102665.69;;;10.52;67.16
68871;BME280;55906;52.278;6.808;2023-04-19T02:24:22;102669.78;;;10.47;67.37
68871;BME280;55906;52.278;6.808;2023-04-19T02:26:48;102670.97;;;10.37;67.57
68871;BME280;55906;52.278;6.808;2023-04-19T02:29:15;102668.97;;;10.33;67.45
68871;BME280;55906;52.278;6.808;2023-04-19T02:31:43;102666.25;;;10.32;67.60
68871;BME280;55906;52.278;6.808;2023-04-19T02:34:10;102665.34;;;10.31;67.25
68871;BME280;55906;52.278;6.808;2023-04-19T02:36:37;102665.19;;;10.28;67.12
68871;BME280;55906;52.278;6.808;2023-04-19T02:39:03;102660.41;;;10.21;67.56
68871;BME280;55906;52.278;6.808;2023-04-19T02:41:31;102672.75;;;10.22;67.13
68871;BME280;55906;52.278;6.808;2023-04-19T02:43:57;102675.28;;;10.20;66.78
68871;BME280;55906;52.278;6.808;2023-04-19T02:46:24;102680.81;;;10.10;67.52
68871;BME280;55906;52.278;6.808;2023-04-19T02:48:52;102679.63;;;10.05;67.63
68871;BME280;55906;52.278;6.808;2023-04-19T02:51:18;102688.34;;;10.04;67.59
68871;BME280;55906;52.278;6.808;2023-04-19T02:53:45;102686.34;;;10.00;67.28
68871;BME280;55906;52.278;6.808;2023-04-19T02:56:12;102684.47;;;9.98;66.95
68871;BME280;55906;52.278;6.808;2023-04-19T02:58:38;102679.75;;;9.92;67.35
68871;BME280;55906;52.278;6.808;2023-04-19T03:01:05;102675.94;;;9.87;67.44
68871;BME280;55906;52.278;6.808;2023-04-19T03:03:32;102683.84;;;9.87;67.11
68871;BME280;55906;52.278;6.808;2023-04-19T03:06:00;102679.22;;;9.83;67.40
68871;BME280;55906;52.278;6.808;2023-04-19T03:08:27;102672.88;;;9.79;67.46
68871;BME280;55906;52.278;6.808;2023-04-19T03:10:54;102678.06;;;9.78;67.52
68871;BME280;55906;52.278;6.808;2023-04-19T03:13:20;102671.06;;;9.78;67.38
68871;BME280;55906;52.278;6.808;2023-04-19T03:15:47;102672.88;;;9.79;67.64
68871;BME280;55906;52.278;6.808;2023-04-19T03:18:13;102677.50;;;9.83;66.87
68871;BME280;55906;52.278;6.808;2023-04-19T03:20:41;102667.06;;;9.85;67.13
68871;BME280;55906;52.278;6.808;2023-04-19T03:23:09;102667.06;;;9.85;66.95
68871;BME280;55906;52.278;6.808;2023-04-19T03:25:35;102668.25;;;9.90;66.98
68871;BME280;55906;52.278;6.808;2023-04-19T03:28:02;102664.97;;;9.94;66.04
68871;BME280;55906;52.278;6.808;2023-04-19T03:30:29;102658.97;;;9.97;66.18
68871;BME280;55906;52.278;6.808;2023-04-19T03:32:55;102657.09;;;9.94;65.96
68871;BME280;55906;52.278;6.808;2023-04-19T03:35:22;102658.44;;;10.02;65.02
68871;BME280;55906;52.278;6.808;2023-04-19T03:37:50;102656.63;;;10.01;64.72
68871;BME280;55906;52.278;6.808;2023-04-19T03:40:19;102657.06;;;10.09;64.43
68871;BME280;55906;52.278;6.808;2023-04-19T03:42:45;102662.31;;;10.09;64.21
68871;BME280;55906;52.278;6.808;2023-04-19T03:45:12;102657.06;;;10.09;63.59
68871;BME280;55906;52.278;6.808;2023-04-19T03:47:39;102662.47;;;10.12;63.07
68871;BME280;55906;52.278;6.808;2023-04-19T03:50:06;102661.94;;;10.17;62.77
68871;BME280;55906;52.278;6.808;2023-04-19T03:52:33;102661.22;;;10.20;62.12
68871;BME280;55906;52.278;6.808;2023-04-19T03:55:00;102662.13;;;10.20;61.53
68871;BME280;55906;52.278;6.808;2023-04-19T03:57:28;102663.72;;;10.18;60.68
68871;BME280;55906;52.278;6.808;2023-04-19T03:59:54;102668.47;;;10.24;61.03
68871;BME280;55906;52.278;6.808;2023-04-19T04:02:21;102662.22;;;10.22;60.09
68871;BME280;55906;52.278;6.808;2023-04-19T04:04:52;102661.41;;;10.23;59.58
68871;BME280;55906;52.278;6.808;2023-04-19T04:07:19;102656.94;;;10.22;59.16
68871;BME280;55906;52.278;6.808;2023-04-19T04:09:47;102658.69;;;10.21;59.20
68871;BME280;55906;52.278;6.808;2023-04-19T04:12:14;102659.38;;;10.19;57.29
68871;BME280;55906;52.278;6.808;2023-04-19T04:14:42;102659.38;;;10.19;57.84
68871;BME280;55906;52.278;6.808;2023-04-19T04:17:09;102663.22;;;10.09;56.31
68871;BME280;55906;52.278;6.808;2023-04-19T04:19:36;102648.25;;;10.08;55.90
68871;BME280;55906;52.278;6.808;2023-04-19T04:22:02;102657.88;;;10.08;56.02
68871;BME280;55906;52.278;6.808;2023-04-19T04:24:30;102657.88;;;10.08;56.08
68871;BME280;55906;52.278;6.808;2023-04-19T04:26:57;102671.41;;;9.99;55.62
68871;BME280;55906;52.278;6.808;2023-04-19T04:29:25;102669.75;;;10.01;56.05
68871;BME280;55906;52.278;6.808;2023-04-19T04:31:53;102667.50;;;9.92;55.34
68871;BME280;55906;52.278;6.808;2023-04-19T04:34:21;102673.75;;;9.94;55.40
68871;BME280;55906;52.278;6.808;2023-04-19T04:36:48;102676.84;;;10.02;55.46
68871;BME280;55906;52.278;6.808;2023-04-19T04:39:15;102678.38;;;9.99;55.29
68871;BME280;55906;52.278;6.808;2023-04-19T04:41:42;102679.50;;;9.87;54.45
68871;BME280;55906;52.278;6.808;2023-04-19T04:44:08;102687.09;;;9.83;54.70
68871;BME280;55906;52.278;6.808;2023-04-19T04:46:36;102692.56;;;9.71;53.73
68871;BME280;55906;52.278;6.808;2023-04-19T04:49:04;102687.03;;;9.67;53.71
68871;BME280;55906;52.278;6.808;2023-04-19T04:51:31;102686.47;;;9.72;53.21
68871;BME280;55906;52.278;6.808;2023-04-19T04:53:58;102688.56;;;9.63;53.61
68871;BME280;55906;52.278;6.808;2023-04-19T04:56:25;102690.66;;;9.54;53.13
68871;BME280;55906;52.278;6.808;2023-04-19T04:58:51;102692.56;;;9.42;52.66
68871;BME280;55906;52.278;6.808;2023-04-19T05:01:18;102686.31;;;9.40;52.64
68871;BME280;55906;52.278;6.808;2023-04-19T05:03:45;102686.66;;;9.31;51.80
68871;BME280;55906;52.278;6.808;2023-04-19T05:06:13;102690.81;;;9.13;52.14
68871;BME280;55906;52.278;6.808;2023-04-19T05:08:40;102697.16;;;9.16;52.00
68871;BME280;55906;52.278;6.808;2023-04-19T05:11:07;102691.28;;;9.07;51.77
68871;BME280;55906;52.278;6.808;2023-04-19T05:13:33;102698.91;;;9.03;52.42
68871;BME280;55906;52.278;6.808;2023-04-19T05:16:00;102693.25;;;8.96;52.21
68871;BME280;55906;52.278;6.808;2023-04-19T05:18:27;102699.22;;;8.94;51.86
68871;BME280;55906;52.278;6.808;2023-04-19T05:20:54;102707.34;;;8.84;51.60
68871;BME280;55906;52.278;6.808;2023-04-19T05:23:23;102703.00;;;8.84;52.29
68871;BME280;55906;52.278;6.808;2023-04-19T05:25:50;102706.19;;;8.65;52.72
68871;BME280;55906;52.278;6.808;2023-04-19T05:28:16;102704.56;;;8.68;51.43
68871;BME280;55906;52.278;6.808;2023-04-19T05:30:43;102712.78;;;8.59;51.88
68871;BME280;55906;52.278;6.808;2023-04-19T05:33:09;102707.72;;;8.62;51.72
68871;BME280;55906;52.278;6.808;2023-04-19T05:35:36;102708.94;;;8.54;52.38
68871;BME280;55906;52.278;6.808;2023-04-19T05:38:03;102703.81;;;8.55;52.48
68871;BME280;55906;52.278;6.808;2023-04-19T05:40:31;102707.63;;;8.60;52.00
68871;BME280;55906;52.278;6.808;2023-04-19T05:42:59;102711.00;;;8.45;52.33
68871;BME280;55906;52.278;6.808;2023-04-19T05:45:26;102706.31;;;8.54;52.58
68871;BME280;55906;52.278;6.808;2023-04-19T05:47:52;102712.38;;;8.53;52.52
68871;BME280;55906;52.278;6.808;2023-04-19T05:50:19;102707.84;;;8.50;52.17
68871;BME280;55906;52.278;6.808;2023-04-19T05:52:46;102707.22;;;8.54;51.95
68871;BME280;55906;52.278;6.808;2023-04-19T05:55:13;102708.63;;;8.62;52.10
68871;BME280;55906;52.278;6.808;2023-04-19T05:57:41;102713.81;;;8.48;51.79
68871;BME280;55906;52.278;6.808;2023-04-19T06:00:08;102720.38;;;8.41;52.21
68871;BME280;55906;52.278;6.808;2023-04-19T06:02:35;102712.00;;;8.47;51.89
68871;BME280;55906;52.278;6.808;2023-04-19T06:05:03;102713.00;;;8.49;52.52
68871;BME280;55906;52.278;6.808;2023-04-19T06:07:29;102723.28;;;8.46;51.85
68871;BME280;55906;52.278;6.808;2023-04-19T06:09:56;102722.16;;;8.55;52.15
68871;BME280;55906;52.278;6.808;2023-04-19T06:12:23;102721.88;;;8.51;52.10
68871;BME280;55906;52.278;6.808;2023-04-19T06:14:51;102723.88;;;8.55;51.81
68871;BME280;55906;52.278;6.808;2023-04-19T06:17:17;102724.06;;;8.58;51.50
68871;BME280;55906;52.278;6.808;2023-04-19T06:19:48;102734.66;;;8.59;51.60
68871;BME280;55906;52.278;6.808;2023-04-19T06:22:15;102726.84;;;8.74;51.17
68871;BME280;55906;52.278;6.808;2023-04-19T06:24:43;102727.84;;;8.76;51.33
68871;BME280;55906;52.278;6.808;2023-04-19T06:27:09;102718.38;;;8.78;50.81
68871;BME280;55906;52.278;6.808;2023-04-19T06:29:36;102715.50;;;8.88;50.77
68871;BME280;55906;52.278;6.808;2023-04-19T06:32:04;102717.41;;;8.91;50.69
68871;BME280;55906;52.278;6.808;2023-04-19T06:34:31;102725.16;;;9.03;50.59
68871;BME280;55906;52.278;6.808;2023-04-19T06:36:57;102727.88;;;9.04;50.03
68871;BME280;55906;52.278;6.808;2023-04-19T06:39:24;102726.56;;;9.11;50.08
68871;BME280;55906;52.278;6.808;2023-04-19T06:41:51;102727.34;;;9.10;49.56
68871;BME280;55906;52.278;6.808;2023-04-19T06:44:18;102733.56;;;9.25;49.99
68871;BME280;55906;52.278;6.808;2023-04-19T06:46:44;102736.19;;;9.25;49.56
68871;BME280;55906;52.278;6.808;2023-04-19T06:49:12;102728.97;;;9.36;49.44
68871;BME280;55906;52.278;6.808;2023-04-19T06:51:39;102735.59;;;9.44;48.79
68871;BME280;55906;52.278;6.808;2023-04-19T06:54:06;102739.13;;;9.44;48.41
68871;BME280;55906;52.278;6.808;2023-04-19T06:56:40;102742.84;;;9.62;48.45
68871;BME280;55906;52.278;6.808;2023-04-19T06:59:09;102750.28;;;9.70;48.79
68871;BME280;55906;52.278;6.808;2023-04-19T07:01:37;102751.28;;;9.72;48.66
68871;BME280;55906;52.278;6.808;2023-04-19T07:04:05;102744.47;;;9.90;48.59
68871;BME280;55906;52.278;6.808;2023-04-19T07:06:33;102738.31;;;10.04;48.82
68871;BME280;55906;52.278;6.808;2023-04-19T07:09:00;102738.28;;;10.19;48.28
68871;BME280;55906;52.278;6.808;2023-04-19T07:11:27;102747.28;;;10.22;47.95
68871;BME280;55906;52.278;6.808;2023-04-19T07:13:53;102734.84;;;10.35;47.80
68871;BME280;55906;52.278;6.808;2023-04-19T07:16:20;102735.81;;;10.51;46.99
68871;BME280;55906;52.278;6.808;2023-04-19T07:18:47;102744.06;;;10.57;47.25
68871;BME280;55906;52.278;6.808;2023-04-19T07:21:14;102736.25;;;10.59;46.60
68871;BME280;55906;52.278;6.808;2023-04-19T07:23:42;102732.31;;;10.67;46.43
68871;BME280;55906;52.278;6.808;2023-04-19T07:26:08;102736.78;;;10.84;46.96
68871;BME280;55906;52.278;6.808;2023-04-19T07:28:35;102734.16;;;11.01;46.81
68871;BME280;55906;52.278;6.808;2023-04-19T07:31:01;102724.44;;;11.16;45.96
68871;BME280;55906;52.278;6.808;2023-04-19T07:33:29;102723.44;;;11.14;45.54
68871;BME280;55906;52.278;6.808;2023-04-19T07:35:55;102733.66;;;11.24;44.92
68871;BME280;55906;52.278;6.808;2023-04-19T07:38:22;102721.94;;;11.35;45.26
68871;BME280;55906;52.278;6.808;2023-04-19T07:40:50;102730.19;;;11.41;44.50
68871;BME280;55906;52.278;6.808;2023-04-19T07:43:17;102720.63;;;11.43;44.23
68871;BME280;55906;52.278;6.808;2023-04-19T07:45:43;102721.56;;;11.62;44.38
68871;BME280;55906;52.278;6.808;2023-04-19T07:48:10;102716.44;;;11.65;43.85
68871;BME280;55906;52.278;6.808;2023-04-19T07:50:36;102708.78;;;11.69;43.92
68871;BME280;55906;52.278;6.808;2023-04-19T07:53:03;102711.19;;;11.81;44.00
68871;BME280;55906;52.278;6.808;2023-04-19T07:55:30;102710.31;;;11.80;43.39
68871;BME280;55906;52.278;6.808;2023-04-19T07:57:59;102709.94;;;11.74;43.71
68871;BME280;55906;52.278;6.808;2023-04-19T08:00:26;102725.75;;;11.91;43.00
68871;BME280;55906;52.278;6.808;2023-04-19T08:02:55;102714.31;;;11.90;43.53
68871;BME280;55906;52.278;6.808;2023-04-19T08:05:22;102702.41;;;11.98;42.29
68871;BME280;55906;52.278;6.808;2023-04-19T08:07:50;102710.63;;;12.04;42.97
68871;BME280;55906;52.278;6.808;2023-04-19T08:10:18;102705.09;;;12.17;42.26
68871;BME280;55906;52.278;6.808;2023-04-19T08:12:44;102712.09;;;12.35;42.37
68871;BME280;55906;52.278;6.808;2023-04-19T08:15:12;102707.44;;;12.29;41.53
68871;BME280;55906;52.278;6.808;2023-04-19T08:17:39;102703.34;;;12.36;41.21
68871;BME280;55906;52.278;6.808;2023-04-19T08:20:09;102707.16;;;12.60;40.64
68871;BME280;55906;52.278;6.808;2023-04-19T08:22:36;102702.31;;;12.69;40.73
68871;BME280;55906;52.278;6.808;2023-04-19T08:25:04;102696.50;;;12.96;40.29
68871;BME280;55906;52.278;6.808;2023-04-19T08:27:30;102696.13;;;13.25;40.35
68871;BME280;55906;52.278;6.808;2023-04-19T08:29:57;102691.75;;;13.26;38.44
68871;BME280;55906;52.278;6.808;2023-04-19T08:32:25;102700.91;;;13.74;38.60
68871;BME280;55906;52.278;6.808;2023-04-19T08:34:52;102700.06;;;13.96;37.95
68871;BME280;55906;52.278;6.808;2023-04-19T08:37:19;102692.84;;;14.35;37.37
68871;BME280;55906;52.278;6.808;2023-04-19T08:39:45;102686.84;;;14.84;36.19
68871;BME280;55906;52.278;6.808;2023-04-19T08:42:12;102691.81;;;15.48;38.08
68871;BME280;55906;52.278;6.808;2023-04-19T08:44:39;102697.91;;;15.94;36.54
68871;BME280;55906;52.278;6.808;2023-04-19T08:47:07;102693.59;;;16.25;34.49
68871;BME280;55906;52.278;6.808;2023-04-19T08:49:38;102692.31;;;16.68;35.13
68871;BME280;55906;52.278;6.808;2023-04-19T08:52:05;102685.38;;;16.73;34.65
68871;BME280;55906;52.278;6.808;2023-04-19T08:54:34;102688.00;;;16.71;33.22
68871;BME280;55906;52.278;6.808;2023-04-19T08:57:01;102682.63;;;17.30;33.16
68871;BME280;55906;52.278;6.808;2023-04-19T08:59:28;102692.06;;;17.51;31.08
68871;BME280;55906;52.278;6.808;2023-04-19T09:01:55;102681.59;;;17.57;31.44
68871;BME280;55906;52.278;6.808;2023-04-19T09:04:24;102691.50;;;17.96;30.43
68871;BME280;55906;52.278;6.808;2023-04-19T09:06:52;102685.72;;;18.51;30.45
68871;BME280;55906;52.278;6.808;2023-04-19T09:09:21;102673.03;;;18.79;29.32
68871;BME280;55906;52.278;6.808;2023-04-19T09:11:48;102676.63;;;18.81;29.59
68871;BME280;55906;52.278;6.808;2023-04-19T09:14:16;102661.22;;;18.66;27.33
68871;BME280;55906;52.278;6.808;2023-04-19T09:16:44;102673.19;;;18.47;27.46
68871;BME280;55906;52.278;6.808;2023-04-19T09:19:11;102663.78;;;18.62;26.95
68871;BME280;55906;52.278;6.808;2023-04-19T09:21:38;102662.88;;;18.61;26.63
68871;BME280;55906;52.278;6.808;2023-04-19T09:24:07;102654.56;;;18.88;27.86
68871;BME280;55906;52.278;6.808;2023-04-19T09:26:35;102657.41;;;19.44;28.07
68871;BME280;55906;52.278;6.808;2023-04-19T09:29:03;102649.91;;;19.68;27.64
68871;BME280;55906;52.278;6.808;2023-04-19T09:31:31;102652.91;;;19.90;26.76
68871;BME280;55906;52.278;6.808;2023-04-19T09:34:11;102655.59;;;19.90;26.05
68871;BME280;55906;52.278;6.808;2023-04-19T09:36:37;102641.06;;;19.72;26.39
68871;BME280;55906;52.278;6.808;2023-04-19T09:39:04;102646.47;;;19.77;25.83
68871;BME280;55906;52.278;6.808;2023-04-19T09:41:32;102641.22;;;19.81;25.25
68871;BME280;55906;52.278;6.808;2023-04-19T09:44:08;102628.22;;;20.04;24.29
68871;BME280;55906;52.278;6.808;2023-04-19T09:46:36;102630.16;;;20.14;24.48
68871;BME280;55906;52.278;6.808;2023-04-19T09:49:25;102637.53;;;20.97;24.09
68871;BME280;55906;52.278;6.808;2023-04-19T09:51:53;102621.84;;;20.57;25.25
68871;BME280;55906;52.278;6.808;2023-04-19T09:54:21;102623.78;;;20.68;23.37
68871;BME280;55906;52.278;6.808;2023-04-19T09:56:50;102625.47;;;20.60;23.86
68871;BME280;55906;52.278;6.808;2023-04-19T09:59:17;102625.47;;;20.62;22.70
68871;BME280;55906;52.278;6.808;2023-04-19T10:01:47;102627.50;;;20.80;23.39
68871;BME280;55906;52.278;6.808;2023-04-19T10:04:14;102617.19;;;21.12;23.21
68871;BME280;55906;52.278;6.808;2023-04-19T10:06:46;102617.19;;;21.12;22.40
68871;BME280;55906;52.278;6.808;2023-04-19T10:09:13;102614.22;;;20.87;21.41
68871;BME280;55906;52.278;6.808;2023-04-19T10:11:43;102613.44;;;20.97;21.96
68871;BME280;55906;52.278;6.808;2023-04-19T10:14:15;102616.44;;;21.25;20.03
68871;BME280;55906;52.278;6.808;2023-04-19T10:16:41;102607.00;;;21.66;21.06
68871;BME280;55906;52.278;6.808;2023-04-19T10:19:10;102600.06;;;20.97;20.35
68871;BME280;55906;52.278;6.808;2023-04-19T10:21:38;102608.19;;;21.05;20.23
68871;BME280;55906;52.278;6.808;2023-04-19T10:24:07;102606.06;;;21.61;20.47
68871;BME280;55906;52.278;6.808;2023-04-19T10:29:57;102590.44;;;22.18;20.09
68871;BME280;55906;52.278;6.808;2023-04-19T10:32:26;102584.34;;;22.54;20.68
68871;BME280;55906;52.278;6.808;2023-04-19T10:34:53;102582.59;;;22.57;20.04
68871;BME280;55906;52.278;6.808;2023-04-19T10:37:21;102581.69;;;22.60;19.95
68871;BME280;55906;52.278;6.808;2023-04-19T10:39:49;102575.59;;;23.08;20.07
68871;BME280;55906;52.278;6.808;2023-04-19T10:42:16;102573.81;;;23.09;19.13
68871;BME280;55906;52.278;6.808;2023-04-19T10:47:44;102550.50;;;22.95;19.54
68871;BME280;55906;52.278;6.808;2023-04-19T10:50:11;102562.19;;;23.28;20.23
68871;BME280;55906;52.278;6.808;2023-04-19T10:52:37;102556.84;;;23.75;19.68
68871;BME280;55906;52.278;6.808;2023-04-19T10:55:04;102558.66;;;23.63;20.23
68871;BME280;55906;52.278;6.808;2023-04-19T10:58:00;102552.38;;;23.68;18.94
68871;BME280;55906;52.278;6.808;2023-04-19T11:00:27;102535.31;;;23.89;19.59
68871;BME280;55906;52.278;6.808;2023-04-19T11:02:57;102530.78;;;24.05;18.80
68871;BME280;55906;52.278;6.808;2023-04-19T11:05:24;102530.56;;;24.63;19.53
68871;BME280;55906;52.278;6.808;2023-04-19T11:07:51;102522.66;;;24.31;18.93
68871;BME280;55906;52.278;6.808;2023-04-19T11:10:27;102517.09;;;24.61;18.96
68871;BME280;55906;52.278;6.808;2023-04-19T11:12:55;102505.41;;;24.67;19.08
68871;BME280;55906;52.278;6.808;2023-04-19T11:15:21;102496.50;;;24.57;18.55
68871;BME280;55906;52.278;6.808;2023-04-19T11:17:49;102498.41;;;24.38;17.97
68871;BME280;55906;52.278;6.808;2023-04-19T11:20:22;102508.97;;;24.76;18.69
68871;BME280;55906;52.278;6.808;2023-04-19T11:22:49;102491.94;;;24.74;18.95
68871;BME280;55906;52.278;6.808;2023-04-19T11:25:17;102487.88;;;25.33;18.70
68871;BME280;55906;52.278;6.808;2023-04-19T11:27:46;102507.03;;;24.97;17.75
68871;BME280;55906;52.278;6.808;2023-04-19T11:30:14;102496.91;;;25.28;18.35
68871;BME280;55906;52.278;6.808;2023-04-19T11:32:45;102486.56;;;24.65;17.22
68871;BME280;55906;52.278;6.808;2023-04-19T11:35:13;102471.97;;;25.06;17.40
68871;BME280;55906;52.278;6.808;2023-04-19T11:37:41;102488.22;;;24.89;17.18
68871;BME280;55906;52.278;6.808;2023-04-19T11:40:09;102470.44;;;24.62;17.78
68871;BME280;55906;52.278;6.808;2023-04-19T11:42:39;102466.59;;;25.06;17.73
68871;BME280;55906;52.278;6.808;2023-04-19T11:45:08;102458.44;;;25.98;17.29
68871;BME280;55906;52.278;6.808;2023-04-19T11:47:35;102461.91;;;26.10;16.54
68871;BME280;55906;52.278;6.808;2023-04-19T11:50:35;102463.41;;;26.36;16.93
68871;BME280;55906;52.278;6.808;2023-04-19T11:53:11;102453.09;;;25.93;16.19
68871;BME280;55906;52.278;6.808;2023-04-19T11:55:41;102442.88;;;26.21;16.99
68871;BME280;55906;52.278;6.808;2023-04-19T11:58:08;102443.84;;;26.78;16.60
68871;BME280;55906;52.278;6.808;2023-04-19T12:00:34;102440.00;;;26.35;15.90
68871;BME280;55906;52.278;6.808;2023-04-19T12:03:02;102435.47;;;26.94;16.37
68871;BME280;55906;52.278;6.808;2023-04-19T12:05:29;102441.66;;;27.53;16.38
68871;BME280;55906;52.278;6.808;2023-04-19T12:08:00;102436.69;;;27.28;15.98
68871;BME280;55906;52.278;6.808;2023-04-19T12:10:29;102428.63;;;27.25;16.14
68871;BME280;55906;52.278;6.808;2023-04-19T12:12:56;102422.38;;;26.06;16.30
68871;BME280;55906;52.278;6.808;2023-04-19T12:15:23;102439.00;;;26.43;17.32
68871;BME280;55906;52.278;6.808;2023-04-19T12:17:57;102436.97;;;25.90;16.46
68871;BME280;55906;52.278;6.808;2023-04-19T12:20:31;102435.94;;;25.99;16.43
68871;BME280;55906;52.278;6.808;2023-04-19T12:22:58;102434.75;;;26.84;16.19
68871;BME280;55906;52.278;6.808;2023-04-19T12:25:29;102423.88;;;26.29;16.69
68871;BME280;55906;52.278;6.808;2023-04-19T12:27:58;102426.66;;;26.23;17.04
68871;BME280;55906;52.278;6.808;2023-04-19T12:30:25;102421.97;;;26.94;16.71
68871;BME280;55906;52.278;6.808;2023-04-19T12:32:53;102421.50;;;27.21;17.01
68871;BME280;55906;52.278;6.808;2023-04-19T12:35:20;102420.59;;;27.22;17.15
68871;BME280;55906;52.278;6.808;2023-04-19T12:37:47;102412.94;;;26.95;16.32
68871;BME280;55906;52.278;6.808;2023-04-19T12:40:14;102413.69;;;26.49;16.19
68871;BME280;55906;52.278;6.808;2023-04-19T12:42:42;102414.03;;;26.26;17.24
68871;BME280;55906;52.278;6.808;2023-04-19T12:45:10;102401.44;;;26.84;17.25
68871;BME280;55906;52.278;6.808;2023-04-19T12:47:36;102398.34;;;27.08;16.66
68871;BME280;55906;52.278;6.808;2023-04-19T12:50:04;102402.97;;;27.00;16.73
68871;BME280;55906;52.278;6.808;2023-04-19T12:52:31;102393.81;;;27.08;17.08
68871;BME280;55906;52.278;6.808;2023-04-19T12:54:58;102390.06;;;27.65;16.60
68871;BME280;55906;52.278;6.808;2023-04-19T12:57:25;102385.00;;;27.91;16.25
68871;BME280;55906;52.278;6.808;2023-04-19T12:59:53;102381.34;;;28.34;16.62
68871;BME280;55906;52.278;6.808;2023-04-19T13:02:20;102372.44;;;28.29;16.18
68871;BME280;55906;52.278;6.808;2023-04-19T13:04:46;102369.97;;;28.55;16.42
68871;BME280;55906;52.278;6.808;2023-04-19T13:07:13;102370.38;;;29.11;15.75